Time;durP1;ratioP1;P1;durP2;ratioP2;P2;SDS_P1;SDS_P2;PMS_P1;PMS_P2;Temp;Humidity;BMP_temperature;BMP_pressure;BME280_temperature;BME280_humidity;BME280_pressure;Samples;Min_cycle;Max_cycle;Signal;HPM_P1;HPM_P2
2021/12/29 00:01:44;;;;;;;61.20;22.25;;;;;;;-0.14;91.17;99061.41;5063243;28;20052;-69
2021/12/29 00:04:09;;;;;;;52.58;22.25;;;;;;;-0.02;91.39;99078.56;5064887;28;20057;-70
2021/12/29 00:06:35;;;;;;;52.10;19.98;;;;;;;-0.18;91.24;99038.41;5064567;28;20086;-69
2021/12/29 00:09:01;;;;;;;64.70;22.75;;;;;;;0.06;90.98;99076.16;5063016;28;20025;-69
2021/12/29 00:11:27;;;;;;;36.10;14.13;;;;;;;0.05;90.55;99071.03;5064203;28;20039;-70
2021/12/29 00:13:53;;;;;;;56.40;21.85;;;;;;;0.02;90.39;99079.47;5064494;28;20033;-71
2021/12/29 00:16:18;;;;;;;54.30;19.52;;;;;;;-0.02;90.67;99086.22;5064283;28;20040;-69
2021/12/29 00:18:44;;;;;;;45.90;17.50;;;;;;;-0.14;90.53;99068.19;5064325;28;20028;-70
2021/12/29 00:21:10;;;;;;;32.03;9.98;;;;;;;-0.08;90.36;99093.78;5064183;28;20025;-69
2021/12/29 00:23:35;;;;;;;44.63;17.42;;;;;;;-0.08;90.46;99101.44;5064027;28;20025;-69
2021/12/29 00:26:01;;;;;;;44.60;16.33;;;;;;;-0.11;90.76;99098.84;5064173;28;20032;-69
2021/12/29 00:28:27;;;;;;;43.28;16.83;;;;;;;-0.08;90.56;99106.56;5062632;28;20044;-69
2021/12/29 00:30:52;;;;;;;33.60;13.05;;;;;;;-0.23;90.22;99074.06;5063805;28;20047;-70
2021/12/29 00:33:18;;;;;;;46.25;15.88;;;;;;;-0.17;90.18;99089.44;5064238;28;20088;-70
2021/12/29 00:35:44;;;;;;;39.88;15.05;;;;;;;-0.09;90.25;99098.88;5063944;28;20416;-69
2021/12/29 00:38:10;;;;;;;39.33;15.07;;;;;;;-0.09;90.50;99098.88;5063832;28;20012;-69
2021/12/29 00:40:37;;;;;;;32.10;13.02;;;;;;;-0.16;90.55;99096.25;5063965;28;20416;-69
2021/12/29 00:43:05;;;;;;;34.97;16.00;;;;;;;-0.11;90.42;99106.50;5063681;28;20050;-69
2021/12/29 00:45:33;;;;;;;34.00;15.35;;;;;;;-0.27;90.48;99083.34;5062341;28;20028;-69
2021/12/29 00:47:59;;;;;;;44.83;17.52;;;;;;;-0.23;90.19;99078.28;5063693;28;20017;-69
2021/12/29 00:50:24;;;;;;;38.35;12.85;;;;;;;-0.18;90.51;99094.53;5063749;28;20025;-70
2021/12/29 00:52:50;;;;;;;30.75;11.65;;;;;;;-0.13;90.60;99109.03;5063390;28;20024;-70
2021/12/29 00:55:17;;;;;;;35.70;13.63;;;;;;;-0.17;90.30;99101.31;5062412;28;20055;-70
2021/12/29 00:57:43;;;;;;;42.70;14.10;;;;;;;-0.23;90.41;99103.78;5062296;28;20017;-70
2021/12/29 01:00:14;;;;;;;33.55;14.07;;;;;;;-0.24;90.89;99109.75;5045974;28;20058;-70
2021/12/29 01:02:40;;;;;;;29.95;13.38;;;;;;;-0.18;90.56;99107.28;5062710;28;20036;-71
2021/12/29 01:05:07;;;;;;;41.40;17.52;;;;;;;-0.24;90.52;99104.63;5063896;28;20025;-70
2021/12/29 01:07:33;;;;;;;23.90;10.15;;;;;;;-0.35;90.87;99099.38;5063021;28;20221;-70
2021/12/29 01:09:59;;;;;;;46.97;18.23;;;;;;;-0.27;91.00;99103.75;5063605;28;20128;-70
2021/12/29 01:12:25;;;;;;;38.38;15.10;;;;;;;-0.24;90.89;99104.63;5061740;28;20041;-71
2021/12/29 01:14:54;;;;;;;31.52;12.70;;;;;;;-0.20;90.83;99116.59;5063706;28;20043;-70
2021/12/29 01:17:21;;;;;;;44.38;16.02;;;;;;;-0.23;90.66;99111.44;5063589;28;20021;-71
2021/12/29 01:19:47;;;;;;;30.00;11.20;;;;;;;-0.16;90.67;99123.47;5063404;28;20032;-70
2021/12/29 01:22:13;;;;;;;29.98;12.80;;;;;;;-0.45;91.02;99090.72;5063052;28;20017;-70
2021/12/29 01:24:39;;;;;;;28.90;11.82;;;;;;;-0.50;91.01;99086.41;5063431;28;20032;-70
2021/12/29 01:27:05;;;;;;;39.40;14.68;;;;;;;-0.40;91.26;99110.34;5063409;28;20370;-70
2021/12/29 01:29:31;;;;;;;21.35;8.88;;;;;;;-0.29;90.86;99110.50;5062050;28;20112;-71
2021/12/29 01:31:59;;;;;;;45.88;18.30;;;;;;;-0.31;91.01;99122.41;5063238;28;20029;-71
2021/12/29 01:34:25;;;;;;;37.17;16.27;;;;;;;-0.40;91.00;99114.63;5063283;28;20021;-70
2021/12/29 01:36:51;;;;;;;48.90;20.67;;;;;;;-0.24;91.32;99130.16;5063320;28;20048;-70
2021/12/29 01:39:18;;;;;;;48.40;20.27;;;;;;;-0.22;91.34;99133.59;5063222;28;20060;-71
2021/12/29 01:41:45;;;;;;;54.03;21.85;;;;;;;-0.33;91.53;99111.31;5063187;28;20116;-69
2021/12/29 01:44:12;;;;;;;46.40;19.27;;;;;;;-0.40;91.54;99094.22;5063339;28;20052;-69
2021/12/29 01:46:39;;;;;;;43.22;18.70;;;;;;;-0.36;91.55;99095.97;5063186;28;20035;-70
2021/12/29 01:49:05;;;;;;;31.55;13.20;;;;;;;-0.32;91.28;99100.25;5061761;28;20036;-69
2021/12/29 01:51:31;;;;;;;34.83;14.35;;;;;;;-0.08;90.92;99136.34;5063038;28;20032;-68
2021/12/29 01:54:23;;;;;;;49.40;20.45;;;;;;;-0.14;90.95;99137.94;5063067;28;20029;-68
2021/12/29 01:56:52;;;;;;;54.35;21.45;;;;;;;-0.13;91.03;99138.81;5062059;28;20021;-69
2021/12/29 01:59:18;;;;;;;42.85;17.20;;;;;;;-0.13;90.76;99143.94;5061510;28;20020;-70
2021/12/29 02:01:43;;;;;;;40.75;15.80;;;;;;;-0.08;90.95;99152.47;5063078;28;20025;-69
2021/12/29 02:04:09;;;;;;;57.53;21.80;;;;;;;-0.11;91.24;99146.50;5061767;28;20025;-69
2021/12/29 02:06:35;;;;;;;54.65;22.92;;;;;;;-0.10;91.38;99149.06;5062958;28;20104;-70
2021/12/29 02:09:01;;;;;;;41.35;17.88;;;;;;;-0.05;91.32;99151.69;5062713;28;20072;-69
2021/12/29 02:11:30;;;;;;;59.13;23.10;;;;;;;-0.06;91.25;99149.94;5061242;28;20059;-69
2021/12/29 02:14:04;;;;;;;46.72;19.52;;;;;;;0.02;91.13;99160.28;5062917;28;20463;-69
2021/12/29 02:16:30;;;;;;;42.53;17.27;;;;;;;0.01;91.37;99158.56;5062734;28;20013;-69
2021/12/29 02:18:59;;;;;;;63.33;22.45;;;;;;;-0.02;91.13;99146.63;5064834;28;20021;-69
2021/12/29 02:21:27;;;;;;;37.00;16.60;;;;;;;0.01;90.98;99154.31;5065083;28;20477;-69
2021/12/29 02:24:38;;;;;;;41.67;16.42;;;;;;;0.04;90.80;99161.16;5066180;28;20033;-69
2021/12/29 02:26:44;;;;;;;38.67;15.65;;;;;;;0.05;90.54;99157.78;5062906;28;20037;-68
2021/12/29 02:29:12;;;;;;;47.70;18.60;;;;;;;-0.23;90.23;99121.66;5066594;28;20029;-69
2021/12/29 02:31:38;;;;;;;41.50;18.60;;;;;;;0.03;90.39;99170.53;5066199;28;20029;-69
2021/12/29 02:34:06;;;;;;;38.00;16.33;;;;;;;-0.01;90.41;99158.53;5066490;28;20493;-69
2021/12/29 02:36:31;;;;;;;47.22;18.95;;;;;;;0.02;90.48;99175.59;5066341;28;20055;-69
2021/12/29 02:38:57;;;;;;;42.78;18.20;;;;;;;-0.14;90.54;99148.16;5066091;28;20017;-69
2021/12/29 02:41:25;;;;;;;42.05;17.83;;;;;;;0.01;90.67;99171.31;5066142;28;20405;-69
2021/12/29 02:43:59;;;;;;;40.28;17.98;;;;;;;-0.02;90.76;99178.09;5066066;28;20021;-68
2021/12/29 02:46:25;;;;;;;36.63;16.95;;;;;;;-0.03;90.86;99171.28;5064616;28;20088;-68
2021/12/29 02:48:56;;;;;;;37.30;15.48;;;;;;;-0.08;90.75;99165.25;5065964;28;20091;-68
2021/12/29 02:51:22;;;;;;;40.70;16.85;;;;;;;-0.06;90.85;99176.34;5065939;28;20059;-68
2021/12/29 02:53:47;;;;;;;38.17;14.82;;;;;;;0.04;90.52;99181.56;5064301;28;20025;-68
2021/12/29 02:56:13;;;;;;;36.72;13.70;;;;;;;-0.05;90.18;99162.72;5065842;28;20029;-69
2021/12/29 02:58:38;;;;;;;35.00;13.52;;;;;;;-0.01;90.18;99179.81;5065448;28;20076;-68
2021/12/29 03:01:08;;;;;;;41.67;16.70;;;;;;;-0.03;90.45;99173.81;5065447;28;20084;-69
2021/12/29 03:03:36;;;;;;;26.45;11.15;;;;;;;-0.05;90.54;99172.94;5065329;28;20088;-69
2021/12/29 03:06:03;;;;;;;40.95;14.65;;;;;;;-0.04;90.62;99178.91;5065265;28;20071;-69
2021/12/29 03:08:29;;;;;;;37.53;15.15;;;;;;;-0.25;90.58;99142.03;5065224;28;20024;-68
2021/12/29 03:10:55;;;;;;;41.55;17.70;;;;;;;-0.07;90.51;99179.72;5065182;28;20047;-68
2021/12/29 03:13:27;;;;;;;32.50;15.63;;;;;;;-0.21;90.66;99161.66;5065445;28;20039;-68
2021/12/29 03:15:55;;;;;;;36.42;15.07;;;;;;;-0.06;90.49;99172.91;5065459;28;20049;-70
2021/12/29 03:18:20;;;;;;;20.75;10.05;;;;;;;-0.11;90.54;99175.41;5065542;28;20013;-69
2021/12/29 03:20:47;;;;;;;28.52;10.95;;;;;;;-0.18;90.34;99155.75;5063879;28;20047;-69
2021/12/29 03:23:13;;;;;;;37.72;16.55;;;;;;;-0.11;90.37;99172.00;5063856;28;20047;-70
2021/12/29 03:25:38;;;;;;;34.15;15.02;;;;;;;-0.14;90.65;99162.59;5065481;28;20036;-70
2021/12/29 03:28:04;;;;;;;41.58;17.77;;;;;;;-0.21;90.77;99168.47;5065326;28;20025;-71
2021/12/29 03:30:35;;;;;;;37.60;16.55;;;;;;;-0.21;90.83;99168.47;5064896;28;20032;-71
2021/12/29 03:33:05;;;;;;;26.17;9.68;;;;;;;-0.19;90.94;99170.19;5065303;28;20021;-70
2021/12/29 03:35:38;;;;;;;41.00;14.90;;;;;;;-0.19;90.91;99167.63;5065149;28;20024;-70
2021/12/29 03:38:06;;;;;;;53.90;18.48;;;;;;;-0.23;91.08;99170.13;5064819;28;20028;-70
2021/12/29 03:40:31;;;;;;;41.45;13.80;;;;;;;-0.27;91.02;99164.97;5064981;28;20028;-69
2021/12/29 03:42:57;;;;;;;46.22;19.10;;;;;;;-0.23;91.04;99173.53;5063962;28;20032;-69
2021/12/29 03:45:23;;;;;;;45.03;17.67;;;;;;;-0.25;91.17;99177.75;5065372;28;20028;-69
2021/12/29 03:47:49;;;;;;;42.60;16.85;;;;;;;-0.24;91.34;99187.13;5064926;28;20367;-69
2021/12/29 03:50:15;;;;;;;44.30;17.55;;;;;;;-0.25;91.38;99185.41;5064794;28;20021;-69
2021/12/29 03:52:41;;;;;;;47.70;19.60;;;;;;;-0.25;91.46;99182.84;5064827;28;20108;-70
2021/12/29 03:55:07;;;;;;;43.45;16.48;;;;;;;-0.26;91.50;99194.72;5064822;28;20025;-69
2021/12/29 03:57:33;;;;;;;52.08;17.35;;;;;;;-0.24;91.48;99197.34;5064826;28;20017;-71
2021/12/29 03:59:58;;;;;;;51.97;20.00;;;;;;;-0.20;91.51;99210.97;5064537;28;20033;-70
2021/12/29 04:02:24;;;;;;;51.97;23.38;;;;;;;-0.36;91.70;99182.69;5064431;28;20103;-70
2021/12/29 04:04:49;;;;;;;46.80;17.70;;;;;;;-0.18;91.57;99206.78;5064490;28;20066;-70
2021/12/29 04:07:15;;;;;;;49.13;19.40;;;;;;;-0.11;91.52;99210.28;5064251;28;20017;-69
2021/12/29 04:09:40;;;;;;;50.25;20.30;;;;;;;-0.16;91.37;99200.00;5064501;28;20037;-69
2021/12/29 04:12:06;;;;;;;50.92;16.48;;;;;;;-0.11;91.18;99206.00;5063802;28;20053;-69
2021/12/29 04:14:31;;;;;;;42.97;13.95;;;;;;;-0.14;91.04;99195.75;5062818;28;20306;-69
2021/12/29 04:17:06;;;;;;;42.08;15.95;;;;;;;-0.14;91.08;99208.53;5064235;28;20051;-69
2021/12/29 04:20:54;;;;;;;42.75;17.40;;;;;;;-0.13;90.97;99210.25;5064296;28;20020;-69
2021/12/29 04:22:17;;;;;;;47.80;15.23;;;;;;;-0.20;91.09;99209.28;5063799;28;20036;-70
2021/12/29 04:24:42;;;;;;;35.58;15.52;;;;;;;-0.22;91.11;99207.56;5064142;28;20341;-69
2021/12/29 04:27:08;;;;;;;54.72;20.45;;;;;;;-0.16;91.24;99215.31;5064255;28;20485;-69
2021/12/29 04:29:33;;;;;;;46.42;16.60;;;;;;;-0.16;91.17;99217.88;5064307;28;20093;-69
2021/12/29 04:31:59;;;;;;;46.35;17.75;;;;;;;-0.19;91.16;99215.25;5062465;28;20024;-69
2021/12/29 04:34:25;;;;;;;56.60;21.38;;;;;;;-0.21;91.13;99209.28;5062583;28;20021;-69
2021/12/29 04:36:50;;;;;;;62.10;22.77;;;;;;;-0.15;91.50;99219.56;5063999;28;20028;-69
2021/12/29 04:39:16;;;;;;;63.03;23.60;;;;;;;-0.10;91.51;99228.16;5063829;28;20048;-69
2021/12/29 04:41:41;;;;;;;65.50;26.08;;;;;;;-0.06;91.60;99223.94;5063061;28;20029;-69
2021/12/29 04:44:06;;;;;;;61.25;23.48;;;;;;;-0.04;91.75;99214.63;5063532;28;20025;-69
2021/12/29 04:46:40;;;;;;;69.35;24.83;;;;;;;0.06;91.62;99220.75;5063677;28;20104;-69
2021/12/29 04:49:11;;;;;;;63.45;26.90;;;;;;;0.09;91.51;99215.69;5063517;28;20025;-69
2021/12/29 04:51:43;;;;;;;69.20;26.92;;;;;;;0.14;91.52;99216.63;5062461;28;20115;-70
2021/12/29 04:54:09;;;;;;;67.57;25.80;;;;;;;0.21;90.91;99215.00;5061952;28;20032;-70
2021/12/29 04:56:35;;;;;;;69.00;26.33;;;;;;;0.26;91.20;99212.53;5063654;28;20021;-70
2021/12/29 04:59:01;;;;;;;63.83;25.65;;;;;;;0.25;91.17;99209.09;5063621;28;20021;-70
2021/12/29 05:01:26;;;;;;;68.32;26.95;;;;;;;0.24;91.11;99205.69;5063262;28;20025;-70
2021/12/29 05:03:53;;;;;;;71.55;26.23;;;;;;;0.28;91.12;99208.28;5063607;28;20031;-70
2021/12/29 05:09:03;;;;;;;67.88;24.83;;;;;;;0.23;90.71;99203.13;5063309;28;20032;-70
2021/12/29 05:11:28;;;;;;;56.22;21.25;;;;;;;0.24;90.49;99218.47;5063141;28;20037;-70
2021/12/29 05:13:55;;;;;;;56.63;19.77;;;;;;;0.24;90.44;99220.13;5063203;28;20397;-70
2021/12/29 05:16:22;;;;;;;47.45;19.73;;;;;;;0.15;90.25;99217.47;5062144;28;20022;-70
2021/12/29 05:18:48;;;;;;;54.05;19.27;;;;;;;0.14;90.45;99224.28;5063443;28;20048;-70
2021/12/29 05:21:13;;;;;;;46.05;19.48;;;;;;;0.15;90.52;99233.63;5061881;28;20025;-70
2021/12/29 05:23:39;;;;;;;55.53;20.60;;;;;;;0.10;90.45;99222.50;5063133;28;20028;-69
2021/12/29 05:26:04;;;;;;;49.88;19.88;;;;;;;0.10;90.63;99236.13;5063274;28;20361;-70
2021/12/29 05:28:30;;;;;;;48.97;18.55;;;;;;;0.10;90.70;99241.22;5063426;28;20048;-70
2021/12/29 05:30:56;;;;;;;46.55;17.88;;;;;;;0.08;90.67;99242.06;5063131;28;20017;-69
2021/12/29 05:33:22;;;;;;;41.85;17.35;;;;;;;0.09;90.70;99247.19;5061659;28;20084;-69
2021/12/29 05:35:47;;;;;;;46.08;16.85;;;;;;;-0.01;90.66;99223.19;5063218;28;20112;-69
2021/12/29 05:38:12;;;;;;;52.03;22.23;;;;;;;0.04;90.79;99241.13;5061753;28;20021;-70
2021/12/29 05:40:38;;;;;;;51.83;17.45;;;;;;;0.08;90.85;99254.81;5061759;28;20202;-70
2021/12/29 05:43:04;;;;;;;63.13;23.83;;;;;;;0.01;91.01;99247.88;5061766;28;20325;-70
2021/12/29 05:45:29;;;;;;;57.85;21.55;;;;;;;0.09;91.12;99259.06;5061669;28;20036;-70
2021/12/29 05:47:55;;;;;;;57.22;22.02;;;;;;;0.16;91.16;99254.94;5063042;28;20021;-70
2021/12/29 05:50:24;;;;;;;52.25;21.52;;;;;;;0.19;90.89;99260.06;5063279;28;20067;-70
2021/12/29 05:52:50;;;;;;;54.13;21.73;;;;;;;0.09;91.05;99236.09;5064680;28;20033;-70
2021/12/29 05:55:16;;;;;;;51.35;21.40;;;;;;;0.18;90.77;99250.69;5067008;28;20028;-71
2021/12/29 05:57:41;;;;;;;59.40;21.95;;;;;;;0.13;90.65;99239.56;5066930;28;20055;-69
2021/12/29 06:00:09;;;;;;;55.15;21.52;;;;;;;0.05;90.78;99231.78;5067025;28;20031;-69
2021/12/29 06:02:35;;;;;;;53.03;20.67;;;;;;;0.12;90.71;99248.91;5066837;28;20444;-69
2021/12/29 06:05:00;;;;;;;67.15;23.73;;;;;;;0.06;90.93;99239.47;5066807;28;20080;-69
2021/12/29 06:07:26;;;;;;;43.20;18.35;;;;;;;0.11;90.83;99248.03;5066482;28;20054;-68
2021/12/29 06:09:51;;;;;;;56.25;19.92;;;;;;;0.13;90.49;99263.38;5066856;28;20032;-68
2021/12/29 06:12:17;;;;;;;64.68;23.80;;;;;;;0.12;90.46;99256.56;5065066;28;20044;-68
2021/12/29 06:14:44;;;;;;;53.70;20.48;;;;;;;0.07;90.76;99256.50;5066550;28;20362;-72
2021/12/29 06:17:13;;;;;;;56.55;21.75;;;;;;;0.08;90.60;99265.84;5066529;28;20032;-68
2021/12/29 06:19:40;;;;;;;62.05;19.95;;;;;;;0.07;90.81;99265.84;5066524;28;20096;-68
2021/12/29 06:22:09;;;;;;;48.67;17.90;;;;;;;0.09;90.63;99274.38;5066532;28;20017;-68
2021/12/29 06:24:34;;;;;;;61.75;23.42;;;;;;;0.05;90.77;99268.38;5066130;28;20025;-68
2021/12/29 06:27:00;;;;;;;60.10;23.73;;;;;;;0.07;90.87;99274.38;5066252;28;20356;-68
2021/12/29 06:29:25;;;;;;;47.83;17.60;;;;;;;0.04;90.88;99273.44;5066022;28;20024;-69
2021/12/29 06:31:51;;;;;;;55.25;22.05;;;;;;;0.09;91.50;99276.94;5066059;28;20036;-68
2021/12/29 06:34:17;;;;;;;48.70;17.88;;;;;;;0.10;91.02;99274.41;5065989;28;20021;-69
2021/12/29 06:36:42;;;;;;;60.75;23.23;;;;;;;0.04;91.05;99258.13;5065850;28;20049;-69
2021/12/29 06:39:07;;;;;;;61.95;24.23;;;;;;;0.14;90.82;99274.44;5065886;28;20020;-69
2021/12/29 06:41:33;;;;;;;55.50;23.30;;;;;;;0.13;91.30;99273.59;5065669;28;20556;-69
2021/12/29 06:43:58;;;;;;;53.63;20.35;;;;;;;0.17;90.86;99284.72;5065716;28;20056;-69
2021/12/29 06:46:23;;;;;;;52.40;21.75;;;;;;;0.14;91.01;99284.66;5066094;28;20101;-69
2021/12/29 06:48:49;;;;;;;48.08;20.00;;;;;;;0.17;90.88;99292.38;5064600;28;20024;-68
2021/12/29 06:51:14;;;;;;;55.15;21.77;;;;;;;0.17;90.85;99298.34;5065704;28;20032;-68
2021/12/29 06:53:39;;;;;;;56.78;22.27;;;;;;;0.16;90.75;99298.31;5065482;28;20025;-68
2021/12/29 06:56:06;;;;;;;55.13;20.63;;;;;;;0.18;90.84;99291.53;5065856;28;20025;-69
2021/12/29 06:58:32;;;;;;;55.83;21.63;;;;;;;0.16;90.76;99299.16;5064313;28;20081;-68
2021/12/29 07:00:58;;;;;;;61.17;21.17;;;;;;;0.16;90.75;99309.38;5065463;28;20342;-68
2021/12/29 07:03:25;;;;;;;66.82;23.92;;;;;;;0.16;90.89;99304.25;5065157;28;20500;-68
2021/12/29 07:05:51;;;;;;;55.38;22.25;;;;;;;0.16;90.80;99298.31;5064990;28;20083;-69
2021/12/29 07:08:16;;;;;;;47.53;18.40;;;;;;;0.17;90.69;99300.91;5065455;28;20044;-68
2021/12/29 07:10:42;;;;;;;59.35;21.98;;;;;;;0.16;90.61;99305.97;5065329;28;20104;-68
2021/12/29 07:13:08;;;;;;;55.85;24.05;;;;;;;0.13;90.81;99314.44;5063735;28;20041;-68
2021/12/29 07:15:34;;;;;;;57.20;22.55;;;;;;;0.14;90.78;99321.28;5065553;28;20098;-68
2021/12/29 07:17:59;;;;;;;64.10;24.38;;;;;;;0.14;90.90;99323.81;5064054;28;20021;-68
2021/12/29 07:20:24;;;;;;;58.22;22.20;;;;;;;0.16;90.89;99327.25;5065202;28;20529;-69
2021/12/29 07:22:50;;;;;;;65.20;25.70;;;;;;;0.13;90.86;99329.75;5063823;28;20086;-68
2021/12/29 07:25:18;;;;;;;55.67;21.30;;;;;;;0.16;90.87;99334.91;5063648;28;20028;-68
2021/12/29 07:27:43;;;;;;;50.75;21.35;;;;;;;0.11;90.80;99336.53;5064829;28;20025;-67
2021/12/29 07:30:09;;;;;;;54.08;21.60;;;;;;;0.16;91.00;99349.38;5064976;28;20092;-67
2021/12/29 07:32:34;;;;;;;62.83;25.48;;;;;;;0.16;90.95;99355.31;5064763;28;20029;-67
2021/12/29 07:35:00;;;;;;;67.28;26.83;;;;;;;0.19;91.02;99350.25;5065034;28;20104;-68
2021/12/29 07:37:25;;;;;;;70.78;27.60;;;;;;;0.23;91.19;99354.59;5064847;28;20048;-68
2021/12/29 07:39:50;;;;;;;61.70;25.17;;;;;;;0.28;91.25;99361.47;5064777;28;20029;-68
2021/12/29 07:42:16;;;;;;;69.72;28.23;;;;;;;0.33;91.12;99373.50;5064864;28;20025;-68
2021/12/29 07:44:43;;;;;;;70.07;26.60;;;;;;;0.33;91.26;99377.72;5064935;28;20089;-69
2021/12/29 07:47:10;;;;;;;63.70;26.13;;;;;;;0.44;91.08;99376.22;5065147;28;20016;-69
2021/12/29 07:49:36;;;;;;;67.55;25.10;;;;;;;0.52;91.16;99372.91;5064803;28;20081;-69
2021/12/29 07:52:01;;;;;;;64.65;27.38;;;;;;;0.53;91.06;99372.94;5064913;28;20029;-69
2021/12/29 07:54:26;;;;;;;62.33;26.63;;;;;;;0.58;90.89;99370.44;5064638;28;20035;-69
2021/12/29 07:56:52;;;;;;;62.58;26.17;;;;;;;0.62;90.69;99374.78;5064647;28;20322;-69
2021/12/29 07:59:19;;;;;;;71.47;27.50;;;;;;;0.60;90.75;99377.31;5064650;28;20013;-68
2021/12/29 08:01:45;;;;;;;63.38;25.70;;;;;;;0.60;90.76;99381.56;5064363;28;20021;-69
2021/12/29 08:04:13;;;;;;;53.33;23.25;;;;;;;0.62;90.49;99369.69;5064370;28;20056;-69
2021/12/29 08:06:38;;;;;;;67.45;26.10;;;;;;;0.63;90.37;99378.19;5064051;28;20029;-69
2021/12/29 08:09:06;;;;;;;62.10;25.27;;;;;;;0.61;90.33;99389.25;5063832;28;20029;-69
2021/12/29 08:11:32;;;;;;;70.72;26.83;;;;;;;0.56;90.58;99378.09;5063981;28;20124;-69
2021/12/29 08:13:57;;;;;;;58.50;25.15;;;;;;;0.68;90.41;99384.22;5064183;28;20025;-68
2021/12/29 08:16:22;;;;;;;58.78;26.30;;;;;;;0.70;90.25;99388.53;5063609;28;20116;-69
2021/12/29 08:18:49;;;;;;;65.60;25.73;;;;;;;0.64;90.39;99382.47;5064365;28;20393;-68
2021/12/29 08:21:15;;;;;;;64.03;26.45;;;;;;;0.72;90.24;99386.00;5063899;28;20199;-69
2021/12/29 08:23:40;;;;;;;59.03;24.73;;;;;;;0.74;90.31;99379.22;5064051;28;20573;-69
2021/12/29 08:26:05;;;;;;;65.30;25.65;;;;;;;0.79;90.25;99389.50;5064124;28;20084;-69
2021/12/29 08:28:31;;;;;;;62.13;25.25;;;;;;;0.76;90.15;99381.78;5063784;28;20020;-69
2021/12/29 08:30:56;;;;;;;63.45;25.13;;;;;;;0.76;90.06;99387.78;5063700;28;20143;-69
2021/12/29 08:33:22;;;;;;;72.95;26.33;;;;;;;0.72;89.97;99393.66;5063838;28;20025;-70
2021/12/29 08:35:47;;;;;;;63.25;26.30;;;;;;;0.69;90.09;99398.72;5063586;28;20039;-69
2021/12/29 08:38:13;;;;;;;65.50;25.13;;;;;;;0.66;89.94;99391.88;5063786;28;20421;-69
2021/12/29 08:40:39;;;;;;;63.78;25.95;;;;;;;0.71;90.04;99390.25;5063746;28;20154;-70
2021/12/29 08:43:04;;;;;;;58.63;24.33;;;;;;;0.71;89.93;99390.25;5063566;28;20084;-69
2021/12/29 08:45:31;;;;;;;64.03;25.40;;;;;;;0.67;89.97;99388.47;5063679;28;20021;-70
2021/12/29 08:47:58;;;;;;;61.83;26.88;;;;;;;0.63;89.93;99391.84;5063656;28;20017;-70
2021/12/29 08:50:29;;;;;;;64.18;26.58;;;;;;;0.62;89.99;99400.34;5063562;28;20021;-70
2021/12/29 08:52:55;;;;;;;66.90;25.70;;;;;;;0.60;90.22;99412.22;5063306;28;20073;-73
2021/12/29 08:55:20;;;;;;;61.67;25.30;;;;;;;0.56;90.53;99408.75;5063420;28;20111;-73
2021/12/29 08:57:46;;;;;;;67.78;26.85;;;;;;;0.62;90.40;99410.56;5063271;28;20025;-72
2021/12/29 09:00:14;;;;;;;64.90;25.40;;;;;;;0.69;90.42;99412.38;5063549;28;20029;-74
2021/12/29 09:02:40;;;;;;;61.25;25.92;;;;;;;0.72;90.42;99402.19;5063336;28;20458;-73
2021/12/29 09:05:07;;;;;;;62.28;24.83;;;;;;;0.72;90.12;99401.31;5063315;28;20026;-75
2021/12/29 09:07:32;;;;;;;78.05;27.17;;;;;;;0.66;90.16;99396.13;5063184;28;20473;-74
2021/12/29 09:09:57;;;;;;;63.55;24.85;;;;;;;0.67;90.22;99393.59;5063477;28;20040;-74
2021/12/29 09:12:23;;;;;;;55.58;24.27;;;;;;;0.68;90.10;99399.56;5063341;28;20072;-76
2021/12/29 09:14:48;;;;;;;67.18;25.40;;;;;;;0.63;90.03;99396.94;5063459;28;20056;-76
2021/12/29 09:17:14;;;;;;;61.15;26.23;;;;;;;0.62;90.30;99395.22;5063421;28;20088;-76
2021/12/29 09:19:41;;;;;;;61.17;25.58;;;;;;;0.58;90.17;99393.44;5063554;28;20052;-74
2021/12/29 09:22:08;;;;;;;67.57;25.38;;;;;;;0.59;90.16;99405.41;5063245;28;20032;-74
2021/12/29 09:24:33;;;;;;;61.60;24.05;;;;;;;0.52;90.11;99406.13;5063185;28;20020;-73
2021/12/29 09:26:59;;;;;;;64.00;24.83;;;;;;;0.52;89.97;99412.09;5063834;28;20474;-73
2021/12/29 09:29:24;;;;;;;68.80;23.92;;;;;;;0.47;89.95;99421.38;5067355;28;20131;-73
2021/12/29 09:31:50;;;;;;;68.15;27.10;;;;;;;0.39;90.07;99405.91;5067115;28;20044;-73
2021/12/29 09:34:15;;;;;;;59.28;23.30;;;;;;;0.35;90.22;99411.81;5067276;28;20028;-74
2021/12/29 09:36:41;;;;;;;69.18;26.25;;;;;;;0.39;90.45;99412.72;5067174;28;20039;-72
2021/12/29 09:39:06;;;;;;;65.18;26.77;;;;;;;0.30;90.51;99401.53;5065504;28;20017;-73
2021/12/29 09:41:32;;;;;;;67.72;26.25;;;;;;;0.34;90.65;99408.41;5066839;28;20013;-74
2021/12/29 09:43:58;;;;;;;65.78;25.67;;;;;;;0.36;90.47;99418.63;5067097;28;20151;-74
2021/12/29 09:46:24;;;;;;;69.32;24.23;;;;;;;0.36;90.49;99413.53;5067173;28;20029;-74
2021/12/29 09:48:51;;;;;;;61.53;22.88;;;;;;;0.32;90.24;99409.22;5067226;28;20029;-74
2021/12/29 09:51:17;;;;;;;55.35;23.35;;;;;;;0.28;90.54;99410.84;5066740;28;20108;-73
2021/12/29 09:53:44;;;;;;;55.83;22.77;;;;;;;0.30;90.62;99413.44;5065452;28;20100;-73
2021/12/29 09:56:10;;;;;;;60.33;21.30;;;;;;;0.27;90.71;99410.81;5067050;28;20021;-73
2021/12/29 09:58:36;;;;;;;59.58;25.90;;;;;;;0.24;90.65;99406.50;5066883;28;20025;-73
2021/12/29 10:01:04;;;;;;;53.50;21.95;;;;;;;0.26;90.88;99409.13;5066896;28;20413;-74
2021/12/29 10:03:31;;;;;;;63.25;25.48;;;;;;;0.24;90.83;99394.59;5066754;28;20017;-73
2021/12/29 10:06:00;;;;;;;70.88;24.60;;;;;;;0.29;90.81;99397.25;5066710;28;20075;-73
2021/12/29 10:08:29;;;;;;;60.70;23.52;;;;;;;0.26;90.99;99398.91;5065228;28;20021;-73
2021/12/29 10:10:59;;;;;;;52.25;21.48;;;;;;;0.27;90.99;99393.81;5066402;28;20028;-72
2021/12/29 10:13:28;;;;;;;48.22;19.70;;;;;;;0.28;90.82;99398.09;5066641;28;20040;-73
2021/12/29 10:16:02;;;;;;;63.13;26.23;;;;;;;0.22;90.87;99396.25;5066901;28;20052;-71
2021/12/29 10:18:30;;;;;;;65.28;24.50;;;;;;;0.27;91.27;99405.72;5065387;28;20047;-72
2021/12/29 10:20:58;;;;;;;78.88;28.67;;;;;;;0.30;91.39;99408.31;5066583;28;20025;-71
2021/12/29 10:23:30;;;;;;;77.20;28.08;;;;;;;0.34;91.36;99420.28;5066002;28;20054;-71
2021/12/29 10:26:03;;;;;;;70.57;26.48;;;;;;;0.41;91.53;99424.69;5066359;28;20021;-71
2021/12/29 10:28:31;;;;;;;73.07;28.58;;;;;;;0.44;91.65;99419.63;5066572;28;20073;-71
2021/12/29 10:31:13;;;;;;;65.38;25.65;;;;;;;0.53;91.54;99428.28;5065164;28;20045;-71
2021/12/29 10:33:46;;;;;;;79.95;28.40;;;;;;;0.52;91.51;99419.75;5066528;28;20020;-72
2021/12/29 10:36:28;;;;;;;88.95;28.67;;;;;;;0.51;91.70;99432.50;5066644;28;20043;-71
2021/12/29 10:39:04;;;;;;;61.40;26.45;;;;;;;0.56;91.31;99424.06;5065074;28;20025;-71
2021/12/29 10:41:32;;;;;;;69.55;26.15;;;;;;;0.49;91.37;99423.13;5066207;28;20052;-71
2021/12/29 10:44:02;;;;;;;65.50;26.20;;;;;;;0.59;91.15;99429.22;5066280;28;20021;-71
2021/12/29 10:46:31;;;;;;;75.70;26.30;;;;;;;0.52;91.09;99419.75;5066551;28;20044;-71
2021/12/29 10:48:59;;;;;;;73.65;27.30;;;;;;;0.55;91.21;99413.84;5066278;28;20025;-72
2021/12/29 10:51:43;;;;;;;66.88;28.27;;;;;;;0.47;91.27;99404.34;5066262;28;20029;-72
2021/12/29 10:54:28;;;;;;;73.78;27.95;;;;;;;0.54;91.34;99417.22;5066078;28;20024;-73
2021/12/29 10:57:01;;;;;;;77.25;30.35;;;;;;;0.56;91.45;99425.78;5066624;28;20109;-74
2021/12/29 10:59:30;;;;;;;79.72;27.80;;;;;;;0.59;91.64;99433.50;5065951;28;20021;-75
2021/12/29 11:01:56;;;;;;;76.60;29.80;;;;;;;0.63;91.48;99426.72;5066004;28;20020;-75
2021/12/29 11:04:23;;;;;;;86.03;30.67;;;;;;;0.60;91.40;99438.63;5065834;28;20044;-74
2021/12/29 11:06:50;;;;;;;70.07;27.73;;;;;;;0.63;91.71;99442.06;5066048;28;20017;-75
2021/12/29 11:09:42;;;;;;;70.97;27.92;;;;;;;0.65;91.51;99437.84;5065719;28;20033;-74
2021/12/29 11:12:12;;;;;;;71.65;28.67;;;;;;;0.70;91.52;99437.06;5064021;28;20041;-73
2021/12/29 11:14:42;;;;;;;91.63;28.33;;;;;;;0.71;91.66;99440.50;5065918;28;20148;-74
2021/12/29 11:17:09;;;;;;;79.00;28.23;;;;;;;0.76;91.74;99445.66;5065997;28;20033;-74
2021/12/29 11:19:37;;;;;;;68.25;28.05;;;;;;;0.79;91.75;99446.59;5065496;28;20100;-74
2021/12/29 11:22:15;;;;;;;68.18;28.55;;;;;;;0.79;91.84;99449.16;5065756;28;20063;-73
2021/12/29 11:24:43;;;;;;;64.78;26.77;;;;;;;0.82;91.94;99449.19;5065465;28;20123;-74